sensor_id;sensor_type;location;lat;lon;timestamp;pressure;altitude;pressure_sealevel;temperature;humidity
21706;BME280;11014;53.076;18.208;2023-02-07T00:01:33;103913.78;;;0.84;60.20
21706;BME280;11014;53.076;18.208;2023-02-07T00:04:02;103917.72;;;0.93;60.21
21706;BME280;11014;53.076;18.208;2023-02-07T00:06:34;103914.63;;;1.00;60.10
21706;BME280;11014;53.076;18.208;2023-02-07T00:09:05;103913.31;;;1.07;59.99
21706;BME280;11014;53.076;18.208;2023-02-07T00:11:36;103917.50;;;1.11;60.13
21706;BME280;11014;53.076;18.208;2023-02-07T00:14:09;103919.03;;;1.15;59.82
21706;BME280;11014;53.076;18.208;2023-02-07T00:16:40;103927.53;;;1.20;60.02
21706;BME280;11014;53.076;18.208;2023-02-07T00:19:09;103923.97;;;1.22;59.73
21706;BME280;11014;53.076;18.208;2023-02-07T00:21:38;103928.22;;;1.24;60.09
21706;BME280;11014;53.076;18.208;2023-02-07T00:24:06;103922.94;;;1.24;60.04
21706;BME280;11014;53.076;18.208;2023-02-07T00:26:35;103925.69;;;1.23;60.39
21706;BME280;11014;53.076;18.208;2023-02-07T00:29:04;103927.66;;;1.19;60.49
21706;BME280;11014;53.076;18.208;2023-02-07T00:31:34;103921.50;;;1.18;60.89
21706;BME280;11014;53.076;18.208;2023-02-07T00:34:05;103918.84;;;1.18;60.86
21706;BME280;11014;53.076;18.208;2023-02-07T00:36:35;103916.78;;;1.24;60.79
21706;BME280;11014;53.076;18.208;2023-02-07T00:39:13;103926.09;;;1.31;60.82
21706;BME280;11014;53.076;18.208;2023-02-07T00:41:43;103917.75;;;1.37;60.93
21706;BME280;11014;53.076;18.208;2023-02-07T00:44:12;103922.69;;;1.43;60.97
21706;BME280;11014;53.076;18.208;2023-02-07T00:46:41;103925.28;;;1.44;61.10
21706;BME280;11014;53.076;18.208;2023-02-07T00:49:10;103925.16;;;1.46;61.01
21706;BME280;11014;53.076;18.208;2023-02-07T00:51:39;103915.53;;;1.45;60.96
21706;BME280;11014;53.076;18.208;2023-02-07T00:54:08;103911.91;;;1.46;61.07
21706;BME280;11014;53.076;18.208;2023-02-07T00:56:36;103915.31;;;1.48;61.40
21706;BME280;11014;53.076;18.208;2023-02-07T00:59:05;103911.91;;;1.46;61.31
21706;BME280;11014;53.076;18.208;2023-02-07T01:01:35;103913.63;;;1.47;61.63
21706;BME280;11014;53.076;18.208;2023-02-07T01:04:04;103909.09;;;1.49;61.65
21706;BME280;11014;53.076;18.208;2023-02-07T01:06:33;103909.66;;;1.54;61.62
21706;BME280;11014;53.076;18.208;2023-02-07T01:09:04;103916.50;;;1.58;61.64
21706;BME280;11014;53.076;18.208;2023-02-07T01:11:34;103908.56;;;1.58;61.62
21706;BME280;11014;53.076;18.208;2023-02-07T01:14:02;103912.06;;;1.58;61.88
21706;BME280;11014;53.076;18.208;2023-02-07T01:16:33;103917.81;;;1.65;61.84
21706;BME280;11014;53.076;18.208;2023-02-07T01:19:06;103913.66;;;1.75;61.55
21706;BME280;11014;53.076;18.208;2023-02-07T01:21:35;103921.44;;;1.78;61.56
21706;BME280;11014;53.076;18.208;2023-02-07T01:24:06;103915.69;;;1.86;61.64
21706;BME280;11014;53.076;18.208;2023-02-07T01:26:37;103914.25;;;1.94;61.41
21706;BME280;11014;53.076;18.208;2023-02-07T01:29:08;103902.22;;;2.03;61.36
21706;BME280;11014;53.076;18.208;2023-02-07T01:31:40;103906.69;;;2.02;61.23
21706;BME280;11014;53.076;18.208;2023-02-07T01:34:10;103901.38;;;2.02;61.54
21706;BME280;11014;53.076;18.208;2023-02-07T01:36:40;103911.59;;;2.08;61.24
21706;BME280;11014;53.076;18.208;2023-02-07T01:39:12;103907.91;;;2.11;61.45
21706;BME280;11014;53.076;18.208;2023-02-07T01:41:41;103916.72;;;2.11;61.59
21706;BME280;11014;53.076;18.208;2023-02-07T01:46:52;103916.34;;;2.17;61.77
21706;BME280;11014;53.076;18.208;2023-02-07T01:49:27;103911.03;;;2.17;61.77
21706;BME280;11014;53.076;18.208;2023-02-07T01:52:09;103913.50;;;2.20;61.66
21706;BME280;11014;53.076;18.208;2023-02-07T01:54:39;103906.09;;;2.25;61.85
21706;BME280;11014;53.076;18.208;2023-02-07T01:57:11;103905.91;;;2.28;61.72
21706;BME280;11014;53.076;18.208;2023-02-07T01:59:42;103906.59;;;2.32;61.84
21706;BME280;11014;53.076;18.208;2023-02-07T02:02:14;103913.50;;;2.34;61.97
21706;BME280;11014;53.076;18.208;2023-02-07T02:04:46;103902.88;;;2.34;61.91
21706;BME280;11014;53.076;18.208;2023-02-07T02:07:15;103900.97;;;2.36;62.20
21706;BME280;11014;53.076;18.208;2023-02-07T02:09:44;103898.41;;;2.35;62.46
21706;BME280;11014;53.076;18.208;2023-02-07T02:21:10;103888.81;;;2.47;62.22
21706;BME280;11014;53.076;18.208;2023-02-07T02:29:42;103881.69;;;2.61;62.27
21706;BME280;11014;53.076;18.208;2023-02-07T02:37:54;103870.75;;;2.66;62.09
21706;BME280;11014;53.076;18.208;2023-02-07T02:43:17;103859.94;;;2.69;62.46
21706;BME280;11014;53.076;18.208;2023-02-07T02:45:54;103858.94;;;2.84;62.22
21706;BME280;11014;53.076;18.208;2023-02-07T02:48:25;103863.22;;;2.86;61.90
21706;BME280;11014;53.076;18.208;2023-02-07T02:50:55;103864.03;;;2.87;61.95
21706;BME280;11014;53.076;18.208;2023-02-07T02:53:24;103865.75;;;2.88;62.07
21706;BME280;11014;53.076;18.208;2023-02-07T02:59:03;103846.34;;;3.00;61.83
21706;BME280;11014;53.076;18.208;2023-02-07T03:02:28;103851.66;;;3.00;61.64
21706;BME280;11014;53.076;18.208;2023-02-07T03:08:03;103863.91;;;3.15;61.37
21706;BME280;11014;53.076;18.208;2023-02-07T03:11:24;103866.03;;;3.23;61.54
21706;BME280;11014;53.076;18.208;2023-02-07T03:13:59;103864.16;;;3.25;61.21
21706;BME280;11014;53.076;18.208;2023-02-07T03:19:23;103867.75;;;3.36;61.27
21706;BME280;11014;53.076;18.208;2023-02-07T03:22:01;103866.59;;;3.40;60.93
21706;BME280;11014;53.076;18.208;2023-02-07T03:24:43;103860.34;;;3.41;61.15
21706;BME280;11014;53.076;18.208;2023-02-07T03:27:15;103864.81;;;3.41;60.94
21706;BME280;11014;53.076;18.208;2023-02-07T03:29:51;103862.44;;;3.36;61.14
21706;BME280;11014;53.076;18.208;2023-02-07T03:32:34;103857.13;;;3.36;61.09
21706;BME280;11014;53.076;18.208;2023-02-07T03:35:33;103865.75;;;3.40;61.01
21706;BME280;11014;53.076;18.208;2023-02-07T03:38:05;103865.66;;;3.41;60.92
21706;BME280;11014;53.076;18.208;2023-02-07T03:40:38;103868.31;;;3.41;61.15
21706;BME280;11014;53.076;18.208;2023-02-07T03:43:30;103865.66;;;3.41;61.19
21706;BME280;11014;53.076;18.208;2023-02-07T03:46:01;103874.56;;;3.40;61.25
21706;BME280;11014;53.076;18.208;2023-02-07T03:48:29;103866.28;;;3.45;61.15
21706;BME280;11014;53.076;18.208;2023-02-07T03:51:05;103867.56;;;3.52;61.05
21706;BME280;11014;53.076;18.208;2023-02-07T03:53:34;103857.34;;;3.58;61.21
21706;BME280;11014;53.076;18.208;2023-02-07T03:56:03;103855.47;;;3.61;60.76
21706;BME280;11014;53.076;18.208;2023-02-07T03:58:34;103847.03;;;3.67;61.03
21706;BME280;11014;53.076;18.208;2023-02-07T04:01:03;103849.47;;;3.70;61.05
21706;BME280;11014;53.076;18.208;2023-02-07T04:03:32;103844.28;;;3.68;61.03
21706;BME280;11014;53.076;18.208;2023-02-07T04:06:01;103851.19;;;3.71;61.07
21706;BME280;11014;53.076;18.208;2023-02-07T04:08:31;103851.84;;;3.74;60.70
21706;BME280;11014;53.076;18.208;2023-02-07T04:11:02;103847.56;;;3.72;60.72
21706;BME280;11014;53.076;18.208;2023-02-07T04:13:31;103856.50;;;3.71;60.72
21706;BME280;11014;53.076;18.208;2023-02-07T04:16:01;103843.97;;;3.73;60.76
21706;BME280;11014;53.076;18.208;2023-02-07T04:18:31;103848.00;;;3.78;60.79
21706;BME280;11014;53.076;18.208;2023-02-07T04:21:05;103847.78;;;3.81;60.73
21706;BME280;11014;53.076;18.208;2023-02-07T04:23:35;103837.16;;;3.81;60.64
21706;BME280;11014;53.076;18.208;2023-02-07T04:26:04;103839.69;;;3.83;60.60
21706;BME280;11014;53.076;18.208;2023-02-07T04:28:33;103842.97;;;3.86;60.72
21706;BME280;11014;53.076;18.208;2023-02-07T04:31:02;103838.00;;;3.82;60.63
21706;BME280;11014;53.076;18.208;2023-02-07T04:33:30;103841.59;;;3.81;60.73
21706;BME280;11014;53.076;18.208;2023-02-07T04:36:01;103852.25;;;3.81;60.65
21706;BME280;11014;53.076;18.208;2023-02-07T04:38:34;103852.88;;;3.84;60.72
21706;BME280;11014;53.076;18.208;2023-02-07T04:41:04;103850.88;;;3.88;60.42
21706;BME280;11014;53.076;18.208;2023-02-07T04:43:35;103851.81;;;3.87;60.54
21706;BME280;11014;53.076;18.208;2023-02-07T04:46:05;103852.56;;;3.89;60.24
21706;BME280;11014;53.076;18.208;2023-02-07T04:48:40;103858.59;;;3.91;60.46
21706;BME280;11014;53.076;18.208;2023-02-07T04:51:15;103850.53;;;3.92;60.37
21706;BME280;11014;53.076;18.208;2023-02-07T04:53:56;103851.19;;;3.96;60.23
21706;BME280;11014;53.076;18.208;2023-02-07T04:56:38;103859.16;;;3.96;60.55
21706;BME280;11014;53.076;18.208;2023-02-07T04:59:11;103856.50;;;3.96;60.39
21706;BME280;11014;53.076;18.208;2023-02-07T05:01:40;103864.56;;;3.94;60.31
21706;BME280;11014;53.076;18.208;2023-02-07T05:04:08;103856.94;;;3.90;60.46
21706;BME280;11014;53.076;18.208;2023-02-07T05:06:37;103864.16;;;3.88;60.61
21706;BME280;11014;53.076;18.208;2023-02-07T05:09:06;103863.31;;;3.87;60.60
21706;BME280;11014;53.076;18.208;2023-02-07T05:11:35;103858.84;;;3.88;60.62
21706;BME280;11014;53.076;18.208;2023-02-07T05:14:03;103865.53;;;3.93;60.41
21706;BME280;11014;53.076;18.208;2023-02-07T05:16:32;103866.81;;;4.00;60.58
21706;BME280;11014;53.076;18.208;2023-02-07T05:19:02;103860.28;;;4.04;60.26
21706;BME280;11014;53.076;18.208;2023-02-07T05:21:31;103854.88;;;4.06;59.98
21706;BME280;11014;53.076;18.208;2023-02-07T05:23:59;103858.19;;;4.09;59.90
21706;BME280;11014;53.076;18.208;2023-02-07T05:26:28;103843.16;;;4.08;60.01
21706;BME280;11014;53.076;18.208;2023-02-07T05:28:56;103837.72;;;4.10;59.55
21706;BME280;11014;53.076;18.208;2023-02-07T05:31:32;103842.09;;;4.11;59.42
21706;BME280;11014;53.076;18.208;2023-02-07T05:34:19;103846.69;;;4.09;59.04
21706;BME280;11014;53.076;18.208;2023-02-07T05:36:48;103850.50;;;4.05;58.99
21706;BME280;11014;53.076;18.208;2023-02-07T05:39:16;103844.31;;;4.04;58.67
21706;BME280;11014;53.076;18.208;2023-02-07T05:41:45;103849.97;;;4.00;58.64
21706;BME280;11014;53.076;18.208;2023-02-07T05:44:14;103858.94;;;3.99;58.89
21706;BME280;11014;53.076;18.208;2023-02-07T05:46:43;103857.31;;;3.96;58.39
21706;BME280;11014;53.076;18.208;2023-02-07T05:49:12;103853.72;;;3.97;58.53
21706;BME280;11014;53.076;18.208;2023-02-07T05:51:41;103859.75;;;3.99;58.36
21706;BME280;11014;53.076;18.208;2023-02-07T05:54:09;103849.03;;;4.01;58.38
21706;BME280;11014;53.076;18.208;2023-02-07T05:56:38;103841.78;;;4.03;58.31
21706;BME280;11014;53.076;18.208;2023-02-07T05:59:07;103850.19;;;3.97;58.40
21706;BME280;11014;53.076;18.208;2023-02-07T06:01:35;103856.50;;;3.96;58.34
21706;BME280;11014;53.076;18.208;2023-02-07T06:04:04;103853.06;;;3.94;58.17
21706;BME280;11014;53.076;18.208;2023-02-07T06:06:33;103855.63;;;3.95;58.30
21706;BME280;11014;53.076;18.208;2023-02-07T06:09:02;103863.50;;;3.97;57.97
21706;BME280;11014;53.076;18.208;2023-02-07T06:11:32;103856.28;;;3.99;58.03
21706;BME280;11014;53.076;18.208;2023-02-07T06:14:00;103857.31;;;3.96;58.05
21706;BME280;11014;53.076;18.208;2023-02-07T06:16:29;103852.97;;;3.83;58.41
21706;BME280;11014;53.076;18.208;2023-02-07T06:18:57;103854.16;;;3.79;58.67
21706;BME280;11014;53.076;18.208;2023-02-07T06:21:26;103850.78;;;3.77;58.50
21706;BME280;11014;53.076;18.208;2023-02-07T06:24:13;103856.09;;;3.77;58.79
21706;BME280;11014;53.076;18.208;2023-02-07T06:26:42;103853.44;;;3.77;58.77
21706;BME280;11014;53.076;18.208;2023-02-07T06:29:11;103844.81;;;3.73;58.94
21706;BME280;11014;53.076;18.208;2023-02-07T06:31:40;103835.88;;;3.74;58.81
21706;BME280;11014;53.076;18.208;2023-02-07T06:34:08;103825.88;;;3.78;58.93
21706;BME280;11014;53.076;18.208;2023-02-07T06:36:37;103832.78;;;3.80;58.57
21706;BME280;11014;53.076;18.208;2023-02-07T06:39:06;103841.59;;;3.81;58.74
21706;BME280;11014;53.076;18.208;2023-02-07T06:41:35;103841.19;;;3.87;58.46
21706;BME280;11014;53.076;18.208;2023-02-07T06:44:03;103849.03;;;4.01;58.50
21706;BME280;11014;53.076;18.208;2023-02-07T06:46:32;103845.94;;;4.07;57.77
21706;BME280;11014;53.076;18.208;2023-02-07T06:49:01;103843.03;;;4.10;58.04
21706;BME280;11014;53.076;18.208;2023-02-07T06:51:31;103844.31;;;4.17;57.91
21706;BME280;11014;53.076;18.208;2023-02-07T06:53:59;103849.19;;;4.23;57.50
21706;BME280;11014;53.076;18.208;2023-02-07T06:56:30;103856.84;;;4.28;57.23
21706;BME280;11014;53.076;18.208;2023-02-07T06:58:59;103853.09;;;4.30;57.09
21706;BME280;11014;53.076;18.208;2023-02-07T07:01:28;103857.25;;;4.34;57.18
21706;BME280;11014;53.076;18.208;2023-02-07T07:03:56;103860.66;;;4.36;56.87
21706;BME280;11014;53.076;18.208;2023-02-07T07:06:25;103863.81;;;4.41;56.77
21706;BME280;11014;53.076;18.208;2023-02-07T07:08:53;103863.81;;;4.41;56.53
21706;BME280;11014;53.076;18.208;2023-02-07T07:11:22;103861.91;;;4.43;56.41
21706;BME280;11014;53.076;18.208;2023-02-07T07:13:51;103859.75;;;4.48;56.48
21706;BME280;11014;53.076;18.208;2023-02-07T07:16:20;103861.22;;;4.52;56.55
21706;BME280;11014;53.076;18.208;2023-02-07T07:18:48;103867.78;;;4.59;56.41
21706;BME280;11014;53.076;18.208;2023-02-07T07:21:17;103869.28;;;4.63;55.98
21706;BME280;11014;53.076;18.208;2023-02-07T07:23:45;103854.16;;;4.64;55.91
21706;BME280;11014;53.076;18.208;2023-02-07T07:26:14;103869.66;;;4.70;55.91
21706;BME280;11014;53.076;18.208;2023-02-07T07:28:43;103871.78;;;4.77;55.93
21706;BME280;11014;53.076;18.208;2023-02-07T07:31:12;103878.13;;;4.88;55.87
21706;BME280;11014;53.076;18.208;2023-02-07T07:33:41;103874.50;;;4.89;55.93
21706;BME280;11014;53.076;18.208;2023-02-07T07:36:10;103890.25;;;4.92;55.93
21706;BME280;11014;53.076;18.208;2023-02-07T07:38:38;103888.44;;;4.92;55.84
21706;BME280;11014;53.076;18.208;2023-02-07T07:41:09;103897.91;;;4.96;55.84
21706;BME280;11014;53.076;18.208;2023-02-07T07:43:37;103903.59;;;5.03;55.77
21706;BME280;11014;53.076;18.208;2023-02-07T07:46:06;103900.72;;;5.06;55.73
21706;BME280;11014;53.076;18.208;2023-02-07T07:48:36;103893.97;;;5.13;55.54
21706;BME280;11014;53.076;18.208;2023-02-07T07:51:05;103902.47;;;5.18;55.73
21706;BME280;11014;53.076;18.208;2023-02-07T07:53:33;103904.19;;;5.19;55.47
21706;BME280;11014;53.076;18.208;2023-02-07T07:56:03;103906.09;;;5.17;55.12
21706;BME280;11014;53.076;18.208;2023-02-07T07:58:31;103898.09;;;5.17;55.03
21706;BME280;11014;53.076;18.208;2023-02-07T08:01:00;103907.81;;;5.18;55.36
21706;BME280;11014;53.076;18.208;2023-02-07T08:03:29;103904.28;;;5.17;55.28
21706;BME280;11014;53.076;18.208;2023-02-07T08:05:58;103903.34;;;5.18;55.25
21706;BME280;11014;53.076;18.208;2023-02-07T08:08:26;103908.66;;;5.18;55.18
21706;BME280;11014;53.076;18.208;2023-02-07T08:11:00;103905.16;;;5.18;55.07
21706;BME280;11014;53.076;18.208;2023-02-07T08:13:28;103903.78;;;5.12;54.84
21706;BME280;11014;53.076;18.208;2023-02-07T08:16:01;103923.16;;;5.14;55.09
21706;BME280;11014;53.076;18.208;2023-02-07T08:18:30;103932.88;;;5.15;55.12
21706;BME280;11014;53.076;18.208;2023-02-07T08:20:59;103925.50;;;5.19;54.97
21706;BME280;11014;53.076;18.208;2023-02-07T08:23:28;103925.25;;;5.22;55.04
21706;BME280;11014;53.076;18.208;2023-02-07T08:25:57;103925.25;;;5.22;54.88
21706;BME280;11014;53.076;18.208;2023-02-07T08:28:26;103935.31;;;5.18;54.77
21706;BME280;11014;53.076;18.208;2023-02-07T08:31:05;103939.78;;;5.18;54.67
21706;BME280;11014;53.076;18.208;2023-02-07T08:33:33;103930.09;;;5.17;54.64
21706;BME280;11014;53.076;18.208;2023-02-07T08:36:03;103928.69;;;5.24;54.88
21706;BME280;11014;53.076;18.208;2023-02-07T08:38:36;103920.50;;;5.38;54.73
21706;BME280;11014;53.076;18.208;2023-02-07T08:41:06;103926.69;;;5.50;54.42
21706;BME280;11014;53.076;18.208;2023-02-07T08:43:34;103929.50;;;5.59;54.60
21706;BME280;11014;53.076;18.208;2023-02-07T08:46:03;103926.13;;;5.68;54.58
21706;BME280;11014;53.076;18.208;2023-02-07T08:48:32;103928.09;;;5.77;54.05
21706;BME280;11014;53.076;18.208;2023-02-07T08:51:06;103927.84;;;5.80;53.58
21706;BME280;11014;53.076;18.208;2023-02-07T08:53:35;103931.03;;;5.85;53.78
21706;BME280;11014;53.076;18.208;2023-02-07T08:56:04;103927.19;;;5.89;53.36
21706;BME280;11014;53.076;18.208;2023-02-07T08:58:33;103920.16;;;6.00;53.01
21706;BME280;11014;53.076;18.208;2023-02-07T09:01:02;103918.34;;;6.11;53.03
21706;BME280;11014;53.076;18.208;2023-02-07T09:03:30;103918.81;;;6.16;52.49
21706;BME280;11014;53.076;18.208;2023-02-07T09:06:00;103919.19;;;6.12;52.01
21706;BME280;11014;53.076;18.208;2023-02-07T09:08:28;103913.63;;;6.04;52.22
21706;BME280;11014;53.076;18.208;2023-02-07T09:10:57;103916.16;;;6.05;52.36
21706;BME280;11014;53.076;18.208;2023-02-07T09:13:26;103925.09;;;6.04;52.44
21706;BME280;11014;53.076;18.208;2023-02-07T09:15:56;103926.44;;;6.10;52.52
21706;BME280;11014;53.076;18.208;2023-02-07T09:18:25;103936.78;;;6.14;52.27
21706;BME280;11014;53.076;18.208;2023-02-07T09:20:54;103934.59;;;6.19;52.06
21706;BME280;11014;53.076;18.208;2023-02-07T09:23:22;103931.53;;;6.24;51.98
21706;BME280;11014;53.076;18.208;2023-02-07T09:25:51;103929.00;;;6.22;51.76
21706;BME280;11014;53.076;18.208;2023-02-07T09:28:21;103928.63;;;6.16;51.63
21706;BME280;11014;53.076;18.208;2023-02-07T09:30:50;103931.31;;;6.16;51.89
21706;BME280;11014;53.076;18.208;2023-02-07T09:33:19;103930.59;;;6.14;51.55
21706;BME280;11014;53.076;18.208;2023-02-07T09:35:51;103930.09;;;6.09;51.43
21706;BME280;11014;53.076;18.208;2023-02-07T09:38:22;103931.06;;;6.08;51.93
21706;BME280;11014;53.076;18.208;2023-02-07T09:40:53;103913.97;;;6.10;51.57
21706;BME280;11014;53.076;18.208;2023-02-07T09:43:34;103909.84;;;6.17;51.54
21706;BME280;11014;53.076;18.208;2023-02-07T09:46:22;103910.19;;;6.24;51.52
21706;BME280;11014;53.076;18.208;2023-02-07T09:49:05;103916.50;;;6.34;51.46
21706;BME280;11014;53.076;18.208;2023-02-07T09:51:38;103919.16;;;6.45;51.46
21706;BME280;11014;53.076;18.208;2023-02-07T09:54:23;103913.53;;;6.59;50.87
21706;BME280;11014;53.076;18.208;2023-02-07T09:56:56;103906.28;;;6.61;50.86
21706;BME280;11014;53.076;18.208;2023-02-07T09:59:54;103905.97;;;6.75;50.70
21706;BME280;11014;53.076;18.208;2023-02-07T10:02:33;103899.16;;;6.82;50.14
21706;BME280;11014;53.076;18.208;2023-02-07T10:05:11;103896.59;;;6.81;50.03
21706;BME280;11014;53.076;18.208;2023-02-07T10:07:45;103898.53;;;6.90;50.25
21706;BME280;11014;53.076;18.208;2023-02-07T10:10:22;103899.38;;;6.90;49.78
21706;BME280;11014;53.076;18.208;2023-02-07T10:15:43;103889.66;;;6.89;49.62
21706;BME280;11014;53.076;18.208;2023-02-07T10:18:35;103899.00;;;6.95;49.51
21706;BME280;11014;53.076;18.208;2023-02-07T10:29:54;103875.84;;;7.37;48.97
21706;BME280;11014;53.076;18.208;2023-02-07T10:32:27;103881.00;;;7.29;48.34
21706;BME280;11014;53.076;18.208;2023-02-07T10:35:03;103875.91;;;7.26;48.41
21706;BME280;11014;53.076;18.208;2023-02-07T10:37:37;103874.19;;;7.25;48.11
21706;BME280;11014;53.076;18.208;2023-02-07T10:40:25;103863.22;;;7.28;48.48
21706;BME280;11014;53.076;18.208;2023-02-07T10:43:12;103869.78;;;7.35;48.46
21706;BME280;11014;53.076;18.208;2023-02-07T10:45:47;103861.09;;;7.42;48.12
21706;BME280;11014;53.076;18.208;2023-02-07T10:48:28;103866.56;;;7.41;48.10
21706;BME280;11014;53.076;18.208;2023-02-07T10:51:05;103858.09;;;7.36;47.58
21706;BME280;11014;53.076;18.208;2023-02-07T10:56:25;103849.34;;;7.34;47.59
21706;BME280;11014;53.076;18.208;2023-02-07T10:58:57;103861.34;;;7.39;47.15
21706;BME280;11014;53.076;18.208;2023-02-07T11:01:29;103857.59;;;7.51;47.28
21706;BME280;11014;53.076;18.208;2023-02-07T11:03:58;103861.06;;;7.63;47.10
21706;BME280;11014;53.076;18.208;2023-02-07T11:06:31;103856.88;;;7.70;46.69
21706;BME280;11014;53.076;18.208;2023-02-07T11:11:40;103845.63;;;7.76;46.27
21706;BME280;11014;53.076;18.208;2023-02-07T11:14:14;103853.13;;;7.82;46.37
21706;BME280;11014;53.076;18.208;2023-02-07T11:16:46;103848.47;;;7.84;45.99
21706;BME280;11014;53.076;18.208;2023-02-07T11:19:18;103847.69;;;7.93;46.10
21706;BME280;11014;53.076;18.208;2023-02-07T11:21:49;103856.22;;;8.08;45.88
21706;BME280;11014;53.076;18.208;2023-02-07T11:24:35;103849.03;;;8.18;45.44
21706;BME280;11014;53.076;18.208;2023-02-07T11:27:20;103856.81;;;8.21;45.34
21706;BME280;11014;53.076;18.208;2023-02-07T11:29:55;103856.81;;;8.21;45.18
21706;BME280;11014;53.076;18.208;2023-02-07T11:32:27;103844.38;;;8.10;45.26
21706;BME280;11014;53.076;18.208;2023-02-07T11:34:58;103854.28;;;8.19;45.34
21706;BME280;11014;53.076;18.208;2023-02-07T11:37:38;103846.94;;;8.21;45.31
21706;BME280;11014;53.076;18.208;2023-02-07T11:43:05;103841.25;;;8.05;44.99
21706;BME280;11014;53.076;18.208;2023-02-07T11:45:45;103842.81;;;8.08;44.83
21706;BME280;11014;53.076;18.208;2023-02-07T11:48:20;103831.94;;;8.00;44.81
21706;BME280;11014;53.076;18.208;2023-02-07T11:50:54;103835.75;;;7.97;45.10
21706;BME280;11014;53.076;18.208;2023-02-07T11:56:02;103838.16;;;8.00;44.76
21706;BME280;11014;53.076;18.208;2023-02-07T11:58:37;103839.13;;;7.99;44.88
21706;BME280;11014;53.076;18.208;2023-02-07T12:01:07;103829.97;;;8.02;44.90
21706;BME280;11014;53.076;18.208;2023-02-07T12:03:41;103836.75;;;8.06;44.66
21706;BME280;11014;53.076;18.208;2023-02-07T12:06:15;103834.63;;;8.09;44.33
21706;BME280;11014;53.076;18.208;2023-02-07T12:08:46;103832.44;;;8.24;44.20
21706;BME280;11014;53.076;18.208;2023-02-07T12:11:34;103838.41;;;8.27;43.67
21706;BME280;11014;53.076;18.208;2023-02-07T12:14:12;103854.31;;;8.29;44.18
21706;BME280;11014;53.076;18.208;2023-02-07T12:16:53;103848.13;;;8.28;43.82
21706;BME280;11014;53.076;18.208;2023-02-07T12:19:34;103851.81;;;8.27;44.00
21706;BME280;11014;53.076;18.208;2023-02-07T12:22:20;103845.59;;;8.27;43.95
21706;BME280;11014;53.076;18.208;2023-02-07T12:24:56;103843.25;;;8.22;43.91
21706;BME280;11014;53.076;18.208;2023-02-07T12:27:37;103843.25;;;8.22;44.06
21706;BME280;11014;53.076;18.208;2023-02-07T12:30:20;103837.03;;;8.12;43.96
21706;BME280;11014;53.076;18.208;2023-02-07T12:33:02;103841.69;;;8.10;44.22
21706;BME280;11014;53.076;18.208;2023-02-07T12:38:25;103841.97;;;8.07;44.14
21706;BME280;11014;53.076;18.208;2023-02-07T12:41:01;103847.16;;;7.99;44.32
21706;BME280;11014;53.076;18.208;2023-02-07T12:43:32;103839.28;;;7.98;44.62
21706;BME280;11014;53.076;18.208;2023-02-07T12:49:29;103836.97;;;7.93;44.98
21706;BME280;11014;53.076;18.208;2023-02-07T13:05:54;103822.53;;;8.05;44.52
21706;BME280;11014;53.076;18.208;2023-02-07T13:08:52;103828.00;;;8.04;44.11
21706;BME280;11014;53.076;18.208;2023-02-07T13:14:11;103830.13;;;8.00;44.41
21706;BME280;11014;53.076;18.208;2023-02-07T13:24:51;103837.97;;;7.92;44.55
21706;BME280;11014;53.076;18.208;2023-02-07T13:27:21;103838.94;;;7.91;44.46
21706;BME280;11014;53.076;18.208;2023-02-07T13:29:52;103837.25;;;7.90;44.80
21706;BME280;11014;53.076;18.208;2023-02-07T13:32:25;103835.56;;;7.89;44.84
21706;BME280;11014;53.076;18.208;2023-02-07T13:37:31;103834.13;;;7.85;45.01
21706;BME280;11014;53.076;18.208;2023-02-07T13:40:27;103844.84;;;7.85;45.01
21706;BME280;11014;53.076;18.208;2023-02-07T13:43:14;103842.56;;;7.81;45.51
21706;BME280;11014;53.076;18.208;2023-02-07T13:46:05;103833.78;;;7.69;45.63
21706;BME280;11014;53.076;18.208;2023-02-07T13:48:55;103836.88;;;7.64;45.83
21706;BME280;11014;53.076;18.208;2023-02-07T13:52:03;103845.28;;;7.60;46.02
21706;BME280;11014;53.076;18.208;2023-02-07T13:57:03;103842.97;;;7.46;46.17
21706;BME280;11014;53.076;18.208;2023-02-07T14:02:51;103832.53;;;7.43;46.38
21706;BME280;11014;53.076;18.208;2023-02-07T14:05:26;103845.41;;;7.38;46.38
21706;BME280;11014;53.076;18.208;2023-02-07T14:08:22;103832.97;;;7.48;46.59
21706;BME280;11014;53.076;18.208;2023-02-07T14:10:53;103829.44;;;7.47;46.67
21706;BME280;11014;53.076;18.208;2023-02-07T14:13:31;103821.00;;;7.52;46.57
21706;BME280;11014;53.076;18.208;2023-02-07T14:16:09;103825.22;;;7.45;46.74
21706;BME280;11014;53.076;18.208;2023-02-07T14:18:41;103827.16;;;7.43;46.75
21706;BME280;11014;53.076;18.208;2023-02-07T14:31:55;103823.38;;;7.25;47.12
21706;BME280;11014;53.076;18.208;2023-02-07T14:34:31;103822.16;;;7.29;47.25
21706;BME280;11014;53.076;18.208;2023-02-07T14:36:59;103826.25;;;7.33;47.14
21706;BME280;11014;53.076;18.208;2023-02-07T14:39:32;103822.59;;;7.34;47.25
21706;BME280;11014;53.076;18.208;2023-02-07T14:42:14;103839.94;;;7.18;47.15
21706;BME280;11014;53.076;18.208;2023-02-07T14:44:45;103835.41;;;7.09;47.42
21706;BME280;11014;53.076;18.208;2023-02-07T14:47:27;103844.13;;;7.11;47.59
21706;BME280;11014;53.076;18.208;2023-02-07T14:49:58;103846.59;;;7.03;47.56
21706;BME280;11014;53.076;18.208;2023-02-07T14:52:29;103849.06;;;6.95;47.67
21706;BME280;11014;53.076;18.208;2023-02-07T14:55:17;103847.00;;;6.99;47.87
21706;BME280;11014;53.076;18.208;2023-02-07T14:57:57;103857.09;;;6.95;47.89
21706;BME280;11014;53.076;18.208;2023-02-07T15:00:38;103864.00;;;6.98;48.06
21706;BME280;11014;53.076;18.208;2023-02-07T15:03:19;103855.00;;;6.99;47.91
21706;BME280;11014;53.076;18.208;2023-02-07T15:05:51;103869.94;;;7.01;48.27
21706;BME280;11014;53.076;18.208;2023-02-07T15:08:22;103874.03;;;7.05;48.17